Time;durP1;ratioP1;P1;durP2;ratioP2;P2;SDS_P1;SDS_P2;PMS_P1;PMS_P2;Temp;Humidity;BMP_temperature;BMP_pressure;BME280_temperature;BME280_humidity;BME280_pressure;Samples;Min_cycle;Max_cycle;Signal;HPM_P1;HPM_P2
2022/10/15 00:00:47;;;;;;;0.50;0.43;;;12.30;99.90;;;;;;5073818;28;20055;-86
2022/10/15 00:03:13;;;;;;;0.35;0.35;;;12.40;99.90;;;;;;5073437;28;20040;-86
2022/10/15 00:05:40;;;;;;;3.00;0.63;;;12.50;99.90;;;;;;5057314;28;20139;-86
2022/10/15 00:08:08;;;;;;;0.20;0.20;;;12.40;99.90;;;;;;5073620;28;20040;-86
2022/10/15 00:10:35;;;;;;;0.43;0.43;;;12.40;99.90;;;;;;5073475;28;20476;-86
2022/10/15 00:13:01;;;;;;;0.32;0.30;;;12.20;99.90;;;;;;5073382;28;20043;-86
2022/10/15 00:15:27;;;;;;;0.20;0.20;;;12.30;99.90;;;;;;5073940;28;20037;-86
2022/10/15 00:17:53;;;;;;;0.35;0.35;;;12.20;99.90;;;;;;5056831;28;20082;-86
2022/10/15 00:20:18;;;;;;;0.17;0.17;;;12.20;99.90;;;;;;5073558;28;20045;-86
2022/10/15 00:22:44;;;;;;;0.70;0.38;;;12.20;99.90;;;;;;5056949;28;20048;-86
2022/10/15 00:25:10;;;;;;;0.60;0.52;;;12.30;99.90;;;;;;5073125;28;20041;-86
2022/10/15 00:27:36;;;;;;;0.52;0.15;;;12.40;99.90;;;;;;5056835;28;20388;-86
2022/10/15 00:30:04;;;;;;;0.30;0.30;;;12.30;99.90;;;;;;5057267;28;20572;-86
2022/10/15 00:32:32;;;;;;;0.63;0.40;;;12.10;99.90;;;;;;5056930;28;20132;-86
2022/10/15 00:34:58;;;;;;;2.10;0.45;;;12.10;99.90;;;;;;5073481;28;20073;-86
2022/10/15 00:37:24;;;;;;;0.00;0.00;;;12.10;99.90;;;;;;5056287;28;20128;-87
2022/10/15 00:39:49;;;;;;;0.20;0.10;;;12.10;99.90;;;;;;5063225;28;20036;-85
2022/10/15 00:42:15;;;;;;;0.20;0.20;;;12.20;99.90;;;;;;5065654;28;20108;-86
2022/10/15 00:44:58;;;;;;;0.82;0.68;;;12.10;99.90;;;;;;5076853;28;20137;-85
2022/10/15 00:47:42;;;;;;;0.50;0.50;;;12.30;99.90;;;;;;5056671;28;20149;-85
2022/10/15 00:50:12;;;;;;;0.63;0.43;;;12.10;99.90;;;;;;5057331;28;20063;-86
2022/10/15 00:52:43;;;;;;;1.40;1.10;;;12.10;99.90;;;;;;5056093;28;20082;-86
2022/10/15 00:55:14;;;;;;;2.10;0.68;;;12.10;99.90;;;;;;5056084;28;20044;-86
2022/10/15 00:57:41;;;;;;;0.85;0.73;;;12.10;99.90;;;;;;5056306;28;20559;-86
2022/10/15 01:00:13;;;;;;;1.35;0.98;;;12.10;99.90;;;;;;5073128;28;20366;-86
2022/10/15 01:02:40;;;;;;;0.73;0.73;;;12.00;99.90;;;;;;5056217;28;20094;-86
2022/10/15 01:05:07;;;;;;;0.17;0.17;;;12.00;99.90;;;;;;5072930;28;20040;-86
2022/10/15 01:07:33;;;;;;;0.35;0.35;;;12.00;99.90;;;;;;5056267;28;20400;-86
2022/10/15 01:09:59;;;;;;;1.95;0.60;;;12.10;99.90;;;;;;5077301;28;20094;-86
2022/10/15 01:12:31;;;;;;;2.00;0.85;;;12.10;99.90;;;;;;5060862;28;20048;-86
2022/10/15 01:15:12;;;;;;;0.30;0.30;;;12.00;99.90;;;;;;5060868;28;20423;-86
2022/10/15 01:17:44;;;;;;;1.30;0.80;;;11.90;99.90;;;;;;5060988;28;20088;-86
2022/10/15 01:20:28;;;;;;;1.38;0.63;;;12.00;99.90;;;;;;5060997;28;20044;-86
2022/10/15 01:23:15;;;;;;;1.30;0.90;;;11.90;99.90;;;;;;5060609;28;20040;-86
2022/10/15 01:26:17;;;;;;;0.05;0.05;;;11.90;99.90;;;;;;5076861;28;20052;-87
2022/10/15 01:29:21;;;;;;;0.75;0.40;;;11.90;99.90;;;;;;5003018;28;20107;-86
2022/10/15 01:32:01;;;;;;;0.60;0.60;;;12.20;99.90;;;;;;4960911;28;20057;-86
2022/10/15 01:34:59;;;;;;;0.20;0.10;;;11.90;99.90;;;;;;4944781;28;20054;-86
2022/10/15 01:37:46;;;;;;;0.55;0.40;;;11.90;99.90;;;;;;4961058;28;20070;-86
2022/10/15 01:40:33;;;;;;;1.45;0.50;;;11.80;99.90;;;;;;4944635;28;20145;-86
2022/10/15 01:43:02;;;;;;;0.15;0.15;;;11.80;99.90;;;;;;4944767;28;20550;-86
2022/10/15 01:45:52;;;;;;;1.65;0.45;;;11.80;99.90;;;;;;4944471;28;20102;-86
2022/10/15 01:48:19;;;;;;;0.95;0.95;;;11.80;99.90;;;;;;4960950;28;20129;-86
2022/10/15 01:50:49;;;;;;;1.95;0.20;;;12.10;99.90;;;;;;4944233;28;20581;-86
2022/10/15 01:53:18;;;;;;;0.43;0.40;;;11.80;99.90;;;;;;4944567;28;20055;-86
2022/10/15 01:55:45;;;;;;;0.50;0.45;;;11.70;99.90;;;;;;4960277;28;20061;-86
2022/10/15 01:58:13;;;;;;;0.15;0.15;;;11.70;99.90;;;;;;4944231;28;20054;-86
2022/10/15 02:00:40;;;;;;;0.63;0.63;;;11.90;99.90;;;;;;4960597;28;20481;-86
2022/10/15 02:03:06;;;;;;;2.33;0.57;;;11.70;99.90;;;;;;4944187;28;20097;-86
2022/10/15 02:05:37;;;;;;;1.25;0.22;;;11.70;99.90;;;;;;4973331;28;20130;-86
2022/10/15 02:08:29;;;;;;;1.83;0.73;;;12.00;99.90;;;;;;5025645;28;20052;-86
2022/10/15 02:11:08;;;;;;;0.28;0.20;;;11.70;99.90;;;;;;5059828;28;20098;-86
2022/10/15 02:13:53;;;;;;;0.80;0.52;;;11.70;99.90;;;;;;5059324;28;20080;-86
2022/10/15 02:16:36;;;;;;;0.43;0.30;;;11.70;99.90;;;;;;5059481;28;20098;-87
2022/10/15 02:19:20;;;;;;;1.77;1.00;;;11.70;99.90;;;;;;5076152;28;20060;-86
2022/10/15 02:22:20;;;;;;;0.30;0.30;;;11.70;99.90;;;;;;5059120;28;20059;-86
2022/10/15 02:24:52;;;;;;;0.30;0.30;;;11.70;99.90;;;;;;5075760;28;20049;-86
2022/10/15 02:27:19;;;;;;;0.60;0.47;;;11.70;99.90;;;;;;5079300;28;20056;-86
2022/10/15 02:29:47;;;;;;;0.32;0.32;;;11.70;99.90;;;;;;5066055;28;20044;-86
2022/10/15 02:32:15;;;;;;;0.20;0.20;;;11.70;99.90;;;;;;5065935;28;20100;-86
2022/10/15 02:34:43;;;;;;;0.40;0.30;;;11.70;99.90;;;;;;5075779;28;20508;-86
2022/10/15 02:37:09;;;;;;;0.45;0.38;;;11.90;99.90;;;;;;5059508;28;20135;-86
2022/10/15 02:39:35;;;;;;;0.10;0.03;;;11.90;99.90;;;;;;5059337;28;20090;-86
2022/10/15 02:42:01;;;;;;;0.20;0.20;;;11.90;99.90;;;;;;5059039;28;20078;-86
2022/10/15 02:44:27;;;;;;;1.27;1.17;;;11.80;99.90;;;;;;5075595;28;20056;-85
2022/10/15 02:46:53;;;;;;;0.05;0.05;;;11.70;99.90;;;;;;5058763;28;20059;-86
2022/10/15 02:49:19;;;;;;;0.60;0.60;;;11.70;99.90;;;;;;5058979;28;20074;-86
2022/10/15 02:51:44;;;;;;;0.00;0.00;;;11.70;99.90;;;;;;5058832;28;20491;-86
2022/10/15 02:54:10;;;;;;;0.45;0.10;;;11.70;99.90;;;;;;5074946;28;20052;-86
2022/10/15 02:56:38;;;;;;;0.50;0.50;;;11.90;99.90;;;;;;5075156;28;20185;-86
2022/10/15 02:59:05;;;;;;;1.45;0.57;;;11.70;99.90;;;;;;5058540;28;20045;-86
2022/10/15 03:01:31;;;;;;;0.40;0.35;;;11.90;99.90;;;;;;5075338;28;20048;-86
2022/10/15 03:03:57;;;;;;;0.90;0.40;;;11.70;99.90;;;;;;5058347;28;20041;-86
2022/10/15 03:06:23;;;;;;;1.58;0.55;;;11.70;99.90;;;;;;5058830;28;20066;-86
2022/10/15 03:08:48;;;;;;;0.20;0.13;;;11.70;99.90;;;;;;5075348;28;20095;-86
2022/10/15 03:11:14;;;;;;;0.17;0.17;;;12.00;99.90;;;;;;5058446;28;20052;-86
2022/10/15 03:13:40;;;;;;;0.43;0.10;;;11.70;99.90;;;;;;5057760;28;20040;-86
2022/10/15 03:16:08;;;;;;;0.00;0.00;;;11.80;99.90;;;;;;5058211;28;20370;-86
2022/10/15 03:18:34;;;;;;;0.57;0.20;;;11.70;99.90;;;;;;5058578;28;20102;-86
2022/10/15 03:21:00;;;;;;;0.10;0.10;;;11.90;99.90;;;;;;5058064;28;20088;-86
2022/10/15 03:23:26;;;;;;;0.30;0.30;;;11.70;99.90;;;;;;5074395;28;20044;-86
2022/10/15 03:25:53;;;;;;;0.82;0.40;;;11.70;99.90;;;;;;5057678;28;20098;-86
2022/10/15 03:28:19;;;;;;;0.10;0.10;;;11.70;99.90;;;;;;5058240;28;20052;-86
2022/10/15 03:30:45;;;;;;;0.43;0.43;;;11.90;99.90;;;;;;5058067;28;20081;-86
2022/10/15 03:33:11;;;;;;;0.52;0.43;;;11.70;99.90;;;;;;5056429;28;20040;-86
2022/10/15 03:35:37;;;;;;;0.20;0.13;;;11.80;99.90;;;;;;5057946;28;20040;-86
2022/10/15 03:38:04;;;;;;;0.20;0.20;;;11.80;99.90;;;;;;5057907;28;20135;-86
2022/10/15 03:40:29;;;;;;;0.28;0.00;;;11.90;99.90;;;;;;5057970;28;20472;-86
2022/10/15 03:42:58;;;;;;;0.00;0.00;;;11.70;99.90;;;;;;5057901;28;20128;-86
2022/10/15 03:45:23;;;;;;;0.30;0.30;;;11.60;99.90;;;;;;5057664;28;20080;-86
2022/10/15 03:47:49;;;;;;;0.32;0.10;;;11.60;99.90;;;;;;5074640;28;20499;-86
2022/10/15 03:50:15;;;;;;;0.20;0.20;;;11.60;99.90;;;;;;5057816;28;20044;-86
2022/10/15 03:52:41;;;;;;;0.85;0.17;;;11.60;99.90;;;;;;5057207;28;20174;-85
2022/10/15 03:55:08;;;;;;;0.00;0.00;;;11.70;99.90;;;;;;5057232;28;20559;-85
2022/10/15 03:57:34;;;;;;;0.10;0.10;;;11.60;99.90;;;;;;5057734;28;20045;-86
2022/10/15 04:00:00;;;;;;;0.20;0.20;;;11.60;99.90;;;;;;5057166;28;20477;-86
2022/10/15 04:02:26;;;;;;;0.03;0.03;;;11.60;99.90;;;;;;5056904;28;20055;-85
2022/10/15 04:04:52;;;;;;;0.30;0.30;;;11.70;99.90;;;;;;5074400;28;20048;-86
2022/10/15 04:07:19;;;;;;;0.93;0.65;;;11.80;99.90;;;;;;5056483;28;20110;-86
2022/10/15 04:09:45;;;;;;;1.25;0.63;;;11.70;99.90;;;;;;5056657;28;20518;-85
2022/10/15 04:12:11;;;;;;;1.05;0.98;;;11.70;99.90;;;;;;5057023;28;20041;-85
2022/10/15 04:14:36;;;;;;;0.55;0.52;;;11.70;99.90;;;;;;5056695;28;20055;-85
2022/10/15 04:17:02;;;;;;;3.00;0.85;;;11.90;99.90;;;;;;5063822;28;20075;-85
2022/10/15 04:19:29;;;;;;;0.38;0.38;;;11.70;99.90;;;;;;5066533;28;20068;-84
2022/10/15 04:21:55;;;;;;;0.50;0.20;;;11.90;99.90;;;;;;5062784;28;20041;-85
2022/10/15 04:24:20;;;;;;;3.35;1.35;;;11.80;99.90;;;;;;5074066;28;20059;-85
2022/10/15 04:26:46;;;;;;;0.20;0.20;;;11.70;99.90;;;;;;5073506;28;20049;-85
2022/10/15 04:29:12;;;;;;;1.13;0.45;;;11.80;99.90;;;;;;5056677;28;20060;-85
2022/10/15 04:31:38;;;;;;;1.23;0.47;;;11.60;99.90;;;;;;5073620;28;20040;-85
2022/10/15 04:34:03;;;;;;;3.75;0.13;;;11.70;99.90;;;;;;5057023;28;20443;-85
2022/10/15 04:36:29;;;;;;;0.20;0.20;;;11.90;99.90;;;;;;5073343;28;20098;-85
2022/10/15 04:38:55;;;;;;;0.03;0.03;;;11.50;99.90;;;;;;5073679;28;20067;-85
2022/10/15 04:41:20;;;;;;;1.25;0.55;;;11.50;99.90;;;;;;5057021;28;20055;-85
2022/10/15 04:43:46;;;;;;;0.38;0.10;;;11.60;99.90;;;;;;5056373;28;20139;-85
2022/10/15 04:46:12;;;;;;;0.10;0.10;;;11.60;99.90;;;;;;5073415;28;20044;-85
2022/10/15 04:48:38;;;;;;;0.17;0.17;;;11.40;99.90;;;;;;5056644;28;20133;-85
2022/10/15 04:51:04;;;;;;;2.78;0.32;;;11.70;99.90;;;;;;5073007;28;20095;-85
2022/10/15 04:53:30;;;;;;;0.10;0.10;;;11.30;99.90;;;;;;5039465;28;20056;-86
2022/10/15 04:56:09;;;;;;;0.10;0.00;;;11.60;99.90;;;;;;5073342;28;20055;-85
2022/10/15 04:58:35;;;;;;;0.00;0.00;;;11.30;99.90;;;;;;5057331;28;20186;-85
2022/10/15 05:01:04;;;;;;;0.10;0.10;;;11.30;99.90;;;;;;5073120;28;20468;-86
2022/10/15 05:03:30;;;;;;;0.00;0.00;;;11.10;99.90;;;;;;5056582;28;20550;-85
2022/10/15 05:06:06;;;;;;;0.60;0.10;;;11.70;99.90;;;;;;5072963;28;20044;-86
2022/10/15 05:08:34;;;;;;;1.90;0.40;;;11.20;99.90;;;;;;5072575;28;20052;-85
2022/10/15 05:11:05;;;;;;;0.90;0.63;;;11.20;99.90;;;;;;5056440;28;20052;-85
2022/10/15 05:13:31;;;;;;;0.10;0.10;;;11.20;99.90;;;;;;5056490;28;20040;-85
2022/10/15 05:15:57;;;;;;;0.40;0.40;;;11.10;99.90;;;;;;5056218;28;20047;-86
2022/10/15 05:18:23;;;;;;;0.15;0.15;;;11.10;99.90;;;;;;5056252;28;20052;-86
2022/10/15 05:20:48;;;;;;;0.20;0.13;;;11.20;99.90;;;;;;5073034;28;20071;-86
2022/10/15 05:23:14;;;;;;;0.32;0.32;;;11.20;99.90;;;;;;5073132;28;20060;-86
2022/10/15 05:25:40;;;;;;;0.65;0.40;;;11.20;99.90;;;;;;5057216;28;20428;-86
2022/10/15 05:28:06;;;;;;;0.32;0.30;;;11.20;99.90;;;;;;5073420;28;20106;-85
2022/10/15 05:30:33;;;;;;;0.00;0.00;;;11.20;99.90;;;;;;5056095;28;20040;-86
2022/10/15 05:32:59;;;;;;;1.38;0.50;;;11.30;99.90;;;;;;5055845;28;20087;-85
2022/10/15 05:35:25;;;;;;;0.10;0.10;;;11.30;99.90;;;;;;5056139;28;20080;-85
2022/10/15 05:37:50;;;;;;;0.43;0.20;;;11.40;99.90;;;;;;5072778;28;20053;-86
2022/10/15 05:40:16;;;;;;;0.20;0.20;;;11.30;99.90;;;;;;5072728;28;20036;-85
2022/10/15 05:42:42;;;;;;;0.60;0.40;;;11.70;99.90;;;;;;5056804;28;20052;-85
2022/10/15 05:45:08;;;;;;;0.17;0.17;;;11.20;99.90;;;;;;5056410;28;20484;-84
2022/10/15 05:47:33;;;;;;;0.30;0.30;;;11.30;99.90;;;;;;5064901;28;20524;-86
2022/10/15 05:49:59;;;;;;;0.17;0.10;;;11.30;99.90;;;;;;5054561;28;20119;-85
2022/10/15 05:52:25;;;;;;;2.53;0.20;;;11.00;99.90;;;;;;5052583;28;20147;-85
2022/10/15 05:54:51;;;;;;;0.55;0.15;;;11.40;99.90;;;;;;5070106;28;20049;-84
2022/10/15 05:57:16;;;;;;;0.25;0.10;;;11.80;99.90;;;;;;5073945;28;20131;-85
2022/10/15 05:59:42;;;;;;;0.00;0.00;;;11.40;99.90;;;;;;5057207;28;20063;-84
2022/10/15 06:02:14;;;;;;;0.25;0.20;;;11.30;99.90;;;;;;5057511;28;20139;-85
2022/10/15 06:04:41;;;;;;;0.17;0.17;;;11.40;99.90;;;;;;5057391;28;20075;-85
2022/10/15 06:07:06;;;;;;;1.65;1.00;;;11.40;99.90;;;;;;5065922;28;20052;-84
2022/10/15 06:09:32;;;;;;;2.42;0.47;;;11.50;99.90;;;;;;5060497;28;20058;-85
2022/10/15 06:11:58;;;;;;;0.30;0.10;;;11.50;99.90;;;;;;5057505;28;20106;-89
2022/10/15 06:14:24;;;;;;;0.20;0.20;;;11.50;99.90;;;;;;5074307;28;20164;-85
2022/10/15 06:16:49;;;;;;;0.68;0.17;;;11.50;99.90;;;;;;5057044;28;20071;-84
2022/10/15 06:19:15;;;;;;;0.10;0.10;;;11.50;99.90;;;;;;5073486;28;20059;-85
2022/10/15 06:21:41;;;;;;;0.05;0.05;;;11.60;99.90;;;;;;5073658;28;20059;-85
2022/10/15 06:24:07;;;;;;;2.17;1.13;;;11.60;99.90;;;;;;5074427;28;20053;-84
2022/10/15 06:26:32;;;;;;;3.00;2.38;;;11.60;99.90;;;;;;5056710;28;20052;-84
2022/10/15 06:28:58;;;;;;;2.08;1.00;;;11.70;99.90;;;;;;5073810;28;20048;-84
2022/10/15 06:31:24;;;;;;;0.13;0.13;;;11.70;99.90;;;;;;5057366;28;20081;-84
2022/10/15 06:33:50;;;;;;;0.40;0.20;;;11.70;99.90;;;;;;5056979;28;20519;-84
2022/10/15 06:36:16;;;;;;;0.32;0.32;;;11.70;99.90;;;;;;5056665;28;20057;-85
2022/10/15 06:38:43;;;;;;;0.30;0.30;;;12.30;99.90;;;;;;5073910;28;20040;-84
2022/10/15 06:41:09;;;;;;;1.85;0.20;;;11.80;99.90;;;;;;5074284;28;20119;-87
2022/10/15 06:43:35;;;;;;;0.68;0.60;;;11.90;99.90;;;;;;5057726;28;20527;-86
2022/10/15 06:46:01;;;;;;;3.22;0.68;;;12.00;99.90;;;;;;5056858;28;20056;-83
2022/10/15 06:48:27;;;;;;;0.38;0.38;;;11.80;99.90;;;;;;5072946;28;20060;-84
2022/10/15 06:50:53;;;;;;;0.20;0.20;;;11.90;99.90;;;;;;5056606;28;20052;-84
2022/10/15 06:53:18;;;;;;;0.55;0.55;;;11.90;99.90;;;;;;5056057;28;20053;-84
2022/10/15 06:55:44;;;;;;;0.10;0.10;;;12.00;99.90;;;;;;5057380;28;20075;-84
2022/10/15 06:58:10;;;;;;;0.45;0.38;;;12.30;99.90;;;;;;5056774;28;20106;-83
2022/10/15 07:00:35;;;;;;;0.25;0.22;;;12.00;99.90;;;;;;5057310;28;20032;-84
2022/10/15 07:03:05;;;;;;;0.40;0.40;;;12.00;99.90;;;;;;5058410;28;20041;-84
2022/10/15 07:05:32;;;;;;;3.40;0.68;;;12.10;99.90;;;;;;5058419;28;20051;-84
2022/10/15 07:07:58;;;;;;;0.10;0.10;;;12.10;99.90;;;;;;5058473;28;20059;-84
2022/10/15 07:10:25;;;;;;;0.10;0.10;;;12.10;99.90;;;;;;5075220;28;20044;-84
2022/10/15 07:12:52;;;;;;;0.20;0.20;;;12.20;99.90;;;;;;5073810;28;20542;-84
2022/10/15 07:15:18;;;;;;;2.33;0.20;;;12.10;99.90;;;;;;5058404;28;20098;-84
2022/10/15 07:17:55;;;;;;;0.63;0.63;;;12.40;99.90;;;;;;5058260;28;20087;-84
2022/10/15 07:20:21;;;;;;;0.00;0.00;;;12.20;99.90;;;;;;5058581;28;20086;-84
2022/10/15 07:22:47;;;;;;;4.10;0.63;;;12.20;99.90;;;;;;5058098;28;20041;-84
2022/10/15 07:25:13;;;;;;;2.20;0.85;;;12.30;99.90;;;;;;5058468;28;20048;-84
2022/10/15 07:27:39;;;;;;;1.88;0.68;;;12.30;99.90;;;;;;5074191;28;20549;-84
2022/10/15 07:30:06;;;;;;;0.98;0.75;;;12.30;99.90;;;;;;5057998;28;20078;-84
2022/10/15 07:32:33;;;;;;;1.02;0.73;;;12.30;99.90;;;;;;5057257;28;20412;-84
2022/10/15 07:34:59;;;;;;;1.10;0.47;;;12.30;99.90;;;;;;5074470;28;20045;-83
2022/10/15 07:37:25;;;;;;;0.95;0.43;;;12.40;99.90;;;;;;5057482;28;20113;-84
2022/10/15 07:39:50;;;;;;;0.15;0.15;;;12.40;99.90;;;;;;5057824;28;20139;-84
2022/10/15 07:42:16;;;;;;;1.48;0.90;;;12.40;99.90;;;;;;5057896;28;20442;-84
2022/10/15 07:44:42;;;;;;;0.28;0.28;;;12.40;99.90;;;;;;5074333;28;20046;-84
2022/10/15 07:47:07;;;;;;;1.17;0.52;;;12.50;99.90;;;;;;5074283;28;20044;-84
2022/10/15 07:49:33;;;;;;;1.58;1.48;;;12.60;99.90;;;;;;5057892;28;20054;-84
2022/10/15 07:51:59;;;;;;;1.40;0.47;;;12.70;99.90;;;;;;5057430;28;20083;-84
2022/10/15 07:54:25;;;;;;;0.47;0.47;;;12.70;99.90;;;;;;5075550;28;20060;-84
2022/10/15 07:56:50;;;;;;;0.32;0.20;;;12.70;99.90;;;;;;5070447;28;20496;-84
2022/10/15 07:59:16;;;;;;;0.22;0.20;;;12.70;99.90;;;;;;5087103;28;20062;-84
2022/10/15 08:01:41;;;;;;;0.17;0.17;;;12.80;99.90;;;;;;5075128;28;20080;-83
2022/10/15 08:04:07;;;;;;;0.15;0.08;;;13.20;99.90;;;;;;5057598;28;20048;-84
2022/10/15 08:06:33;;;;;;;0.40;0.40;;;13.00;99.90;;;;;;5057584;28;20084;-84
2022/10/15 08:09:01;;;;;;;0.75;0.75;;;12.90;99.90;;;;;;5057218;28;20129;-83
2022/10/15 08:11:27;;;;;;;0.70;0.25;;;13.00;99.90;;;;;;5057049;28;20055;-84
2022/10/15 08:13:53;;;;;;;2.05;1.10;;;13.10;99.90;;;;;;5056917;28;20476;-83
2022/10/15 08:16:19;;;;;;;0.20;0.20;;;13.10;99.90;;;;;;5073785;28;20048;-83
2022/10/15 08:18:45;;;;;;;0.57;0.57;;;13.20;99.90;;;;;;5056193;28;20045;-83
2022/10/15 08:21:11;;;;;;;0.43;0.20;;;13.30;99.90;;;;;;5057083;28;20052;-83
2022/10/15 08:23:37;;;;;;;0.80;0.50;;;13.40;99.90;;;;;;5056969;28;20400;-83
2022/10/15 08:26:04;;;;;;;0.65;0.15;;;13.40;99.90;;;;;;5073618;28;20036;-83
2022/10/15 08:28:31;;;;;;;2.03;1.85;;;13.50;99.90;;;;;;5073612;28;20443;-83
2022/10/15 08:30:58;;;;;;;0.40;0.40;;;13.50;99.90;;;;;;5056737;28;20051;-83
2022/10/15 08:33:24;;;;;;;4.97;0.65;;;13.60;99.90;;;;;;5073861;28;20080;-82
2022/10/15 08:35:51;;;;;;;1.27;0.30;;;13.70;99.90;;;;;;5073970;28;20088;-82
2022/10/15 08:38:17;;;;;;;2.83;1.08;;;13.80;99.90;;;;;;5073103;28;20392;-82
2022/10/15 08:40:54;;;;;;;0.82;0.77;;;14.10;99.90;;;;;;5073528;28;20056;-82
2022/10/15 08:43:36;;;;;;;0.70;0.30;;;14.20;99.90;;;;;;5072805;28;20382;-83
2022/10/15 08:46:08;;;;;;;0.80;0.68;;;14.20;99.90;;;;;;5073917;28;20396;-83
2022/10/15 08:48:38;;;;;;;3.97;1.00;;;14.10;99.90;;;;;;5073862;28;20519;-83
2022/10/15 08:51:20;;;;;;;0.45;0.45;;;13.90;99.90;;;;;;5073065;28;20047;-82
2022/10/15 08:53:54;;;;;;;0.68;0.68;;;13.80;99.90;;;;;;5072241;28;20457;-83
2022/10/15 08:56:36;;;;;;;2.90;1.05;;;13.60;99.90;;;;;;5056344;28;20140;-82
2022/10/15 08:59:20;;;;;;;1.65;1.23;;;13.50;99.90;;;;;;5072640;28;20052;-83
2022/10/15 09:02:01;;;;;;;3.35;0.98;;;13.40;99.90;;;;;;5055962;28;20492;-82
2022/10/15 09:04:54;;;;;;;1.95;1.83;;;13.30;99.90;;;;;;5073043;28;20041;-83
2022/10/15 09:07:43;;;;;;;2.47;1.90;;;13.20;99.90;;;;;;5072253;28;20056;-83
2022/10/15 09:10:32;;;;;;;0.88;0.88;;;13.20;99.90;;;;;;5072881;28;20559;-82
2022/10/15 09:13:03;;;;;;;7.03;0.68;;;13.10;99.90;;;;;;5072566;28;20136;-82
2022/10/15 09:15:35;;;;;;;1.77;0.90;;;13.10;99.90;;;;;;5073462;28;20048;-82
2022/10/15 09:18:01;;;;;;;0.57;0.40;;;13.10;99.90;;;;;;5072812;28;20048;-83
2022/10/15 09:20:33;;;;;;;1.70;1.02;;;12.60;99.90;;;;;;5071986;28;20059;-83
2022/10/15 09:22:59;;;;;;;0.20;0.20;;;13.10;99.90;;;;;;5072413;28;20190;-82
2022/10/15 09:25:34;;;;;;;0.70;0.70;;;13.20;99.90;;;;;;5056444;28;20060;-81
2022/10/15 09:28:09;;;;;;;1.38;0.82;;;13.00;99.90;;;;;;5056073;28;20400;-81
2022/10/15 09:30:51;;;;;;;9.98;1.30;;;13.00;99.90;;;;;;5059272;28;20147;-81
2022/10/15 09:33:29;;;;;;;1.40;1.05;;;13.10;99.90;;;;;;5059660;28;20041;-81
2022/10/15 09:36:05;;;;;;;0.65;0.65;;;13.00;99.90;;;;;;5060117;28;20075;-81
2022/10/15 09:38:54;;;;;;;0.30;0.25;;;13.10;99.90;;;;;;5060061;28;20052;-81
2022/10/15 09:41:44;;;;;;;0.75;0.73;;;13.10;99.90;;;;;;5002575;28;20061;-81
2022/10/15 09:44:13;;;;;;;1.67;1.42;;;13.10;99.90;;;;;;5020008;28;20053;-82
2022/10/15 09:46:46;;;;;;;0.75;0.73;;;13.30;99.90;;;;;;5019749;28;20517;-82
2022/10/15 09:49:18;;;;;;;1.20;0.85;;;13.10;99.90;;;;;;5022051;28;20556;-81
2022/10/15 09:52:10;;;;;;;0.22;0.22;;;13.10;99.90;;;;;;5024242;28;20099;-81
2022/10/15 09:54:50;;;;;;;1.45;0.20;;;13.20;99.90;;;;;;5020788;28;20096;-81
2022/10/15 09:57:20;;;;;;;0.20;0.20;;;13.20;99.90;;;;;;5002728;28;20065;-81
2022/10/15 09:59:57;;;;;;;1.45;1.35;;;13.20;99.90;;;;;;5002740;28;20097;-81
2022/10/15 10:02:24;;;;;;;1.02;1.02;;;13.30;99.90;;;;;;5018821;28;20132;-82
2022/10/15 10:04:50;;;;;;;1.42;1.02;;;13.30;99.90;;;;;;5018700;28;20053;-81
2022/10/15 10:07:36;;;;;;;6.13;2.05;;;13.40;99.90;;;;;;5018391;28;20042;-82
2022/10/15 10:10:26;;;;;;;1.90;1.42;;;13.50;99.90;;;;;;5017946;28;20072;-81
2022/10/15 10:12:54;;;;;;;2.72;0.93;;;13.50;99.90;;;;;;5016822;28;20049;-82
2022/10/15 10:15:40;;;;;;;0.30;0.30;;;13.60;99.90;;;;;;5017570;28;20095;-81
2022/10/15 10:18:18;;;;;;;0.57;0.57;;;13.80;99.90;;;;;;5039726;28;20500;-82
2022/10/15 10:21:00;;;;;;;0.65;0.65;;;13.80;99.90;;;;;;5048169;28;20081;-82
2022/10/15 10:23:35;;;;;;;0.30;0.30;;;13.90;99.90;;;;;;5060144;28;20142;-82
2022/10/15 10:26:03;;;;;;;2.58;1.13;;;14.10;99.90;;;;;;5038796;28;20037;-82
2022/10/15 10:28:50;;;;;;;0.47;0.47;;;14.10;99.90;;;;;;5045774;28;20114;-82
2022/10/15 10:31:16;;;;;;;0.65;0.60;;;14.20;99.90;;;;;;5058651;28;20523;-82
2022/10/15 10:33:49;;;;;;;0.50;0.30;;;14.30;99.90;;;;;;5058546;28;20091;-81
2022/10/15 10:36:33;;;;;;;0.00;0.00;;;14.30;99.90;;;;;;5059224;28;20079;-82
2022/10/15 10:39:13;;;;;;;0.28;0.20;;;14.40;99.90;;;;;;5075284;28;20118;-81
2022/10/15 10:41:59;;;;;;;1.35;0.65;;;14.40;99.90;;;;;;5042498;28;20059;-82
2022/10/15 10:44:33;;;;;;;0.70;0.70;;;14.50;99.90;;;;;;5039276;28;20045;-82
2022/10/15 10:47:14;;;;;;;0.20;0.20;;;14.50;99.90;;;;;;5054827;28;20132;-82
2022/10/15 10:49:42;;;;;;;0.32;0.32;;;14.50;99.90;;;;;;5041054;28;20110;-82
2022/10/15 10:52:35;;;;;;;0.57;0.57;;;14.60;99.90;;;;;;5045130;28;20036;-83
2022/10/15 10:55:16;;;;;;;0.73;0.73;;;14.70;99.90;;;;;;5051202;28;20072;-81
2022/10/15 10:57:44;;;;;;;0.57;0.50;;;14.70;99.90;;;;;;5056424;28;20411;-81
2022/10/15 11:00:21;;;;;;;0.47;0.47;;;14.70;99.90;;;;;;5038351;28;20056;-82
2022/10/15 11:02:48;;;;;;;0.73;0.10;;;14.70;99.90;;;;;;5050986;28;20048;-83
2022/10/15 11:05:21;;;;;;;0.68;0.68;;;14.60;99.90;;;;;;5055756;28;20049;-82
2022/10/15 11:08:26;;;;;;;0.85;0.82;;;14.60;99.90;;;;;;5038017;28;20052;-82
2022/10/15 11:11:23;;;;;;;3.40;1.13;;;14.50;99.90;;;;;;5055075;28;20087;-83
2022/10/15 11:14:25;;;;;;;2.28;0.82;;;14.50;99.90;;;;;;5054650;28;20092;-84
2022/10/15 11:16:56;;;;;;;1.10;0.68;;;14.50;99.90;;;;;;5054686;28;20045;-83
2022/10/15 11:19:33;;;;;;;1.27;0.90;;;14.60;99.90;;;;;;5038085;28;20084;-84
2022/10/15 11:22:41;;;;;;;0.85;0.22;;;14.60;99.90;;;;;;5038163;28;20574;-83
2022/10/15 11:25:33;;;;;;;0.05;0.05;;;14.60;99.90;;;;;;5037649;28;20386;-83
2022/10/15 11:28:16;;;;;;;0.17;0.17;;;14.60;99.90;;;;;;5037996;28;20048;-84
2022/10/15 11:30:51;;;;;;;0.10;0.10;;;14.60;99.90;;;;;;5038553;28;20049;-83
2022/10/15 11:33:35;;;;;;;0.38;0.38;;;14.70;99.90;;;;;;5054204;28;20059;-83
2022/10/15 11:36:22;;;;;;;1.03;0.43;;;14.70;99.90;;;;;;5054208;28;20488;-83
2022/10/15 11:39:15;;;;;;;0.55;0.55;;;14.70;99.90;;;;;;5038177;28;20049;-83
2022/10/15 11:41:54;;;;;;;0.52;0.52;;;14.80;99.90;;;;;;5038446;28;20160;-83
2022/10/15 11:44:42;;;;;;;0.03;0.03;;;14.80;99.90;;;;;;5043486;28;20063;-83
2022/10/15 11:47:38;;;;;;;0.28;0.28;;;14.80;99.90;;;;;;5050845;28;20040;-83
2022/10/15 11:50:16;;;;;;;2.58;0.73;;;14.80;99.90;;;;;;5048941;28;20164;-83
2022/10/15 11:53:22;;;;;;;0.22;0.22;;;14.90;99.90;;;;;;5053050;28;20056;-83
2022/10/15 11:55:56;;;;;;;0.15;0.00;;;15.00;99.90;;;;;;5041007;28;20457;-85
2022/10/15 11:58:57;;;;;;;0.88;0.85;;;15.10;99.90;;;;;;5074240;28;20056;-84
2022/10/15 12:01:36;;;;;;;1.77;0.38;;;15.10;99.90;;;;;;5000137;28;20164;-84
2022/10/15 12:04:10;;;;;;;2.17;1.08;;;15.20;99.90;;;;;;5014878;28;20056;-84
2022/10/15 12:06:39;;;;;;;1.08;0.60;;;15.20;99.90;;;;;;5016423;28;20057;-84
2022/10/15 12:09:06;;;;;;;0.70;0.70;;;15.10;99.90;;;;;;5016212;28;20053;-84
2022/10/15 12:11:54;;;;;;;0.80;0.28;;;15.10;99.90;;;;;;5016113;28;20099;-85
2022/10/15 12:14:23;;;;;;;0.05;0.05;;;15.20;99.90;;;;;;5016302;28;20048;-84
2022/10/15 12:16:54;;;;;;;0.00;0.00;;;15.10;99.90;;;;;;5015971;28;20128;-87
2022/10/15 12:19:45;;;;;;;0.08;0.08;;;15.10;99.90;;;;;;5016201;28;20054;-86
2022/10/15 12:22:11;;;;;;;0.10;0.10;;;15.10;99.90;;;;;;4957561;28;20062;-86
2022/10/15 12:24:37;;;;;;;0.38;0.38;;;15.10;99.90;;;;;;4958288;28;20231;-85
2022/10/15 12:27:17;;;;;;;0.30;0.30;;;15.10;99.90;;;;;;4957745;28;20149;-89
2022/10/15 12:29:48;;;;;;;0.70;0.70;;;15.00;99.90;;;;;;4957729;28;20061;-86
2022/10/15 12:32:25;;;;;;;0.00;0.00;;;15.00;99.90;;;;;;4941532;28;20055;-83
2022/10/15 12:35:02;;;;;;;0.20;0.20;;;15.40;99.90;;;;;;4941821;28;20113;-84
2022/10/15 12:37:33;;;;;;;0.15;0.00;;;15.00;99.90;;;;;;4962654;28;20064;-84
2022/10/15 12:40:17;;;;;;;0.30;0.30;;;15.20;99.90;;;;;;5015859;28;20057;-84
2022/10/15 12:42:43;;;;;;;0.65;0.65;;;14.90;99.90;;;;;;5015792;28;20114;-82
2022/10/15 12:45:21;;;;;;;0.05;0.05;;;14.90;99.90;;;;;;5016165;28;20486;-84
2022/10/15 12:48:11;;;;;;;0.20;0.20;;;14.90;99.90;;;;;;5015559;28;20607;-84
2022/10/15 12:50:37;;;;;;;0.00;0.00;;;14.90;99.90;;;;;;5015833;28;20564;-84
2022/10/15 12:53:04;;;;;;;0.35;0.20;;;14.90;99.90;;;;;;5015374;28;20053;-82
2022/10/15 12:55:38;;;;;;;0.35;0.35;;;15.40;99.90;;;;;;4999453;28;20049;-83
2022/10/15 12:58:31;;;;;;;0.70;0.47;;;14.90;99.90;;;;;;5016160;28;20045;-83
2022/10/15 13:00:56;;;;;;;0.20;0.20;;;14.90;99.90;;;;;;5056578;28;20049;-83
2022/10/15 13:03:39;;;;;;;0.17;0.10;;;15.00;99.90;;;;;;5056382;28;20098;-82
2022/10/15 13:06:17;;;;;;;0.00;0.00;;;15.00;99.90;;;;;;5056667;28;20036;-83
2022/10/15 13:08:46;;;;;;;0.10;0.03;;;15.00;99.90;;;;;;5048495;28;20488;-83
2022/10/15 13:11:21;;;;;;;0.30;0.30;;;15.00;99.90;;;;;;5036592;28;20091;-83